Time;durP1;ratioP1;P1;durP2;ratioP2;P2;SDS_P1;SDS_P2;PMS_P1;PMS_P2;Temp;Humidity;BMP_temperature;BMP_pressure;BME280_temperature;BME280_humidity;BME280_pressure;Samples;Min_cycle;Max_cycle;Signal;HPM_P1;HPM_P2
2022/10/04 00:00:24;;;;;;;16.07;15.07;;;12.90;39.70;;;;;;5036180;28;21005;-52
2022/10/04 00:02:50;;;;;;;15.20;14.10;;;12.90;39.70;;;;;;5035107;28;20415;-53
2022/10/04 00:05:19;;;;;;;15.33;14.33;;;12.90;39.70;;;;;;5035547;28;20426;-54
2022/10/04 00:07:57;;;;;;;16.13;14.17;;;12.90;39.70;;;;;;5035654;28;20520;-50
2022/10/04 00:10:32;;;;;;;17.13;15.63;;;12.90;39.60;;;;;;5035205;28;20411;-55
2022/10/04 00:13:04;;;;;;;16.17;15.10;;;12.90;39.40;;;;;;5036132;28;20876;-51
2022/10/04 00:15:34;;;;;;;15.83;14.73;;;12.90;39.30;;;;;;5038936;28;20407;-54
2022/10/04 00:18:05;;;;;;;16.00;14.90;;;12.90;39.40;;;;;;5034319;28;20436;-54
2022/10/04 00:20:49;;;;;;;16.60;15.43;;;12.80;39.10;;;;;;5021154;28;20415;-55
2022/10/04 00:23:24;;;;;;;16.10;14.87;;;12.80;39.30;;;;;;5019212;28;20415;-51
2022/10/04 00:26:22;;;;;;;15.47;14.37;;;12.80;39.30;;;;;;5019160;28;20423;-53
2022/10/04 00:28:48;;;;;;;15.33;14.43;;;12.80;39.40;;;;;;5018994;28;20853;-55
2022/10/04 00:31:26;;;;;;;16.70;15.60;;;12.80;39.40;;;;;;5037160;28;20497;-54
2022/10/04 00:34:07;;;;;;;16.33;15.10;;;12.80;39.40;;;;;;5034822;28;21357;-54
2022/10/04 00:36:36;;;;;;;15.93;14.90;;;12.80;39.30;;;;;;5017478;28;20418;-55
2022/10/04 00:39:06;;;;;;;14.63;13.83;;;12.80;39.50;;;;;;5019735;28;20811;-51
2022/10/04 00:42:07;;;;;;;14.90;14.00;;;12.80;39.30;;;;;;5017834;28;20485;-55
2022/10/04 00:44:32;;;;;;;16.37;15.03;;;12.80;39.40;;;;;;5002442;28;20438;-54
2022/10/04 00:47:02;;;;;;;14.07;13.30;;;12.70;39.20;;;;;;5017984;28;20419;-54
2022/10/04 00:49:33;;;;;;;15.63;14.60;;;12.70;39.30;;;;;;5034903;28;20542;-54
2022/10/04 00:52:05;;;;;;;15.40;14.50;;;12.70;39.20;;;;;;5034933;28;20411;-51
2022/10/04 00:54:46;;;;;;;15.50;14.60;;;12.70;39.10;;;;;;5036596;28;20790;-54
2022/10/04 00:57:33;;;;;;;15.90;14.80;;;12.70;39.20;;;;;;5020167;28;20469;-54
2022/10/04 01:00:04;;;;;;;14.70;13.90;;;12.70;39.10;;;;;;5038127;28;20461;-53
2022/10/04 01:02:44;;;;;;;16.33;14.87;;;12.70;39.00;;;;;;5035371;28;20507;-55
2022/10/04 01:05:13;;;;;;;15.13;14.33;;;12.70;39.10;;;;;;5018111;28;21025;-55
2022/10/04 01:07:47;;;;;;;17.03;15.93;;;12.60;39.00;;;;;;5018686;28;20470;-54
2022/10/04 01:10:12;;;;;;;16.17;15.00;;;12.60;39.10;;;;;;5033170;28;20446;-54
2022/10/04 01:12:50;;;;;;;14.63;13.77;;;12.60;38.70;;;;;;5021001;28;20423;-53
2022/10/04 01:15:22;;;;;;;16.27;15.27;;;12.50;39.10;;;;;;5018533;28;20179;-51
2022/10/04 01:18:09;;;;;;;15.27;14.30;;;12.50;39.10;;;;;;5016845;28;20538;-55
2022/10/04 01:20:48;;;;;;;15.37;14.27;;;12.50;39.80;;;;;;5035279;28;20438;-53
2022/10/04 01:23:33;;;;;;;15.93;14.93;;;12.50;39.10;;;;;;5033876;28;20427;-54
2022/10/04 01:25:58;;;;;;;15.10;14.07;;;12.50;38.90;;;;;;5017102;28;20510;-56
2022/10/04 01:28:25;;;;;;;15.93;14.87;;;12.50;38.90;;;;;;5033800;28;20969;-53
2022/10/04 01:30:52;;;;;;;15.33;14.47;;;12.50;38.70;;;;;;5034318;28;20659;-55
2022/10/04 01:33:18;;;;;;;15.97;14.87;;;12.50;38.80;;;;;;5034459;28;20450;-55
2022/10/04 01:35:44;;;;;;;15.77;14.33;;;12.50;38.80;;;;;;5033270;28;20423;-54
2022/10/04 01:38:11;;;;;;;15.50;14.60;;;12.50;38.80;;;;;;5035148;28;20833;-54
2022/10/04 01:40:47;;;;;;;15.47;14.57;;;12.50;38.60;;;;;;5034537;28;20419;-54
2022/10/04 01:43:19;;;;;;;14.77;13.87;;;12.50;38.80;;;;;;5032545;28;20844;-55
2022/10/04 01:45:50;;;;;;;15.83;14.80;;;12.40;38.80;;;;;;5036748;28;20416;-55
2022/10/04 01:48:21;;;;;;;15.70;14.07;;;12.50;38.70;;;;;;5033373;28;20462;-53
2022/10/04 01:51:01;;;;;;;15.97;15.07;;;12.50;38.50;;;;;;5033341;28;20899;-54
2022/10/04 01:53:34;;;;;;;15.80;14.70;;;12.50;38.60;;;;;;5033907;28;20903;-50
2022/10/04 01:56:17;;;;;;;15.63;14.73;;;12.40;38.90;;;;;;5034693;28;20407;-55
2022/10/04 01:58:47;;;;;;;16.33;15.00;;;12.40;39.30;;;;;;5034833;28;20427;-54
2022/10/04 02:01:21;;;;;;;15.50;14.47;;;12.40;38.70;;;;;;5034102;28;20415;-54
2022/10/04 02:04:04;;;;;;;16.57;15.40;;;12.40;38.60;;;;;;5034808;28;20427;-54
2022/10/04 02:06:37;;;;;;;16.00;14.67;;;12.40;38.50;;;;;;5017881;28;20446;-55
2022/10/04 02:09:12;;;;;;;15.57;14.50;;;12.30;38.60;;;;;;5036468;28;20822;-53
2022/10/04 02:11:40;;;;;;;18.00;16.70;;;12.30;38.30;;;;;;5032977;28;20415;-54
2022/10/04 02:14:14;;;;;;;16.70;15.60;;;12.30;38.30;;;;;;5019900;28;20422;-55
2022/10/04 02:16:43;;;;;;;16.80;15.77;;;12.40;38.30;;;;;;5034314;28;20829;-53
2022/10/04 02:19:10;;;;;;;16.97;16.07;;;12.40;39.10;;;;;;5033375;28;20779;-55
2022/10/04 02:21:37;;;;;;;14.97;13.97;;;12.30;38.20;;;;;;5033181;28;20451;-54
2022/10/04 02:24:05;;;;;;;16.03;15.03;;;12.30;37.90;;;;;;5031745;28;20510;-54
2022/10/04 02:26:31;;;;;;;15.60;14.60;;;12.30;37.90;;;;;;5033561;28;20808;-53
2022/10/04 02:28:58;;;;;;;16.20;15.20;;;12.30;38.30;;;;;;5017105;28;20562;-53
2022/10/04 02:34:09;;;;;;;15.03;14.13;;;12.20;38.30;;;;;;5017259;28;20196;-51
2022/10/04 02:36:36;;;;;;;14.87;13.87;;;12.30;38.30;;;;;;5033279;28;20415;-52
2022/10/04 02:39:06;;;;;;;15.23;14.23;;;12.30;38.40;;;;;;5033215;28;20505;-54
2022/10/04 02:41:38;;;;;;;15.20;14.20;;;12.30;38.30;;;;;;5021370;28;21139;-53
2022/10/04 02:44:26;;;;;;;17.00;15.80;;;12.30;38.20;;;;;;5034615;28;20874;-54
2022/10/04 02:47:31;;;;;;;15.43;14.23;;;12.30;38.40;;;;;;5016343;28;20435;-54
2022/10/04 02:50:08;;;;;;;15.50;14.60;;;12.20;38.30;;;;;;4981512;28;20431;-50
2022/10/04 02:52:41;;;;;;;16.03;15.13;;;12.20;38.40;;;;;;5038885;28;20433;-54
2022/10/04 02:55:22;;;;;;;17.53;16.43;;;12.20;38.30;;;;;;5037315;28;20415;-50
2022/10/04 02:57:51;;;;;;;16.47;15.47;;;12.10;38.30;;;;;;5037654;28;20411;-52
2022/10/04 03:00:18;;;;;;;17.23;15.90;;;12.10;38.50;;;;;;5036632;28;20434;-52
2022/10/04 03:03:10;;;;;;;16.57;15.47;;;12.10;38.30;;;;;;5036177;28;20407;-53
2022/10/04 03:05:37;;;;;;;17.20;15.77;;;12.10;38.40;;;;;;5038218;28;20419;-56
2022/10/04 03:08:04;;;;;;;16.47;15.17;;;12.20;38.20;;;;;;5037009;28;20466;-51
2022/10/04 03:10:30;;;;;;;16.13;15.10;;;12.10;38.50;;;;;;5038144;28;20773;-52
2022/10/04 03:12:56;;;;;;;17.07;16.00;;;12.10;38.60;;;;;;5039582;28;20502;-51
2022/10/04 03:15:21;;;;;;;18.20;17.00;;;12.00;38.70;;;;;;5023851;28;20598;-54
2022/10/04 03:17:49;;;;;;;16.87;15.77;;;11.80;39.70;;;;;;5039443;28;20991;-55
2022/10/04 03:20:20;;;;;;;15.93;15.00;;;11.70;41.30;;;;;;5039116;28;20491;-51
2022/10/04 03:22:49;;;;;;;16.23;15.00;;;11.70;40.90;;;;;;5039319;28;20426;-53
2022/10/04 03:25:21;;;;;;;16.10;15.20;;;11.80;40.30;;;;;;5038681;28;20419;-54
2022/10/04 03:27:48;;;;;;;17.60;16.57;;;11.90;40.00;;;;;;5040313;28;20459;-53
2022/10/04 03:30:15;;;;;;;18.30;17.30;;;11.90;39.40;;;;;;5043730;28;20419;-54
2022/10/04 03:32:41;;;;;;;17.00;15.70;;;12.00;38.80;;;;;;5040386;28;20414;-55
2022/10/04 03:35:26;;;;;;;15.43;14.57;;;12.10;38.60;;;;;;5043018;28;20411;-54
2022/10/04 03:37:54;;;;;;;15.80;14.40;;;12.10;38.20;;;;;;5043553;28;20435;-53
2022/10/04 03:40:26;;;;;;;14.90;14.17;;;12.20;38.30;;;;;;5043053;28;20411;-55
2022/10/04 03:42:52;;;;;;;16.80;15.90;;;12.20;38.20;;;;;;5042716;28;20472;-55
2022/10/04 03:45:20;;;;;;;16.50;15.57;;;12.20;37.80;;;;;;5030139;28;20788;-52
2022/10/04 03:47:48;;;;;;;16.30;15.40;;;12.10;37.70;;;;;;5043748;28;20985;-53
2022/10/04 03:50:19;;;;;;;15.20;14.30;;;12.10;38.00;;;;;;5044124;28;20419;-52
2022/10/04 03:52:53;;;;;;;14.80;14.03;;;12.10;37.70;;;;;;5027146;28;20411;-52
2022/10/04 03:55:23;;;;;;;17.03;16.00;;;12.10;37.80;;;;;;5045730;28;20459;-54
2022/10/04 03:57:48;;;;;;;18.17;17.17;;;12.10;37.50;;;;;;5044185;28;20520;-55
2022/10/04 04:00:17;;;;;;;17.70;16.70;;;12.10;38.00;;;;;;5045254;28;20486;-50
2022/10/04 04:02:51;;;;;;;17.40;16.40;;;12.10;37.70;;;;;;5047234;28;20411;-55
2022/10/04 04:05:17;;;;;;;18.30;17.13;;;12.10;37.80;;;;;;5045357;28;20498;-54
2022/10/04 04:07:49;;;;;;;16.97;16.07;;;12.10;37.60;;;;;;5030002;28;20550;-53
2022/10/04 04:10:37;;;;;;;16.90;16.00;;;12.10;37.60;;;;;;5028846;28;20169;-58
2022/10/04 04:13:27;;;;;;;15.60;14.60;;;12.10;38.10;;;;;;5029778;28;20423;-58
2022/10/04 04:15:55;;;;;;;14.97;13.93;;;12.10;38.50;;;;;;5031517;28;20441;-59
2022/10/04 04:18:23;;;;;;;15.20;14.20;;;12.00;38.00;;;;;;5030214;28;20450;-58
2022/10/04 04:20:50;;;;;;;14.37;13.63;;;12.00;38.00;;;;;;5031851;28;20403;-58
2022/10/04 04:23:38;;;;;;;14.50;13.77;;;12.00;37.70;;;;;;5030238;28;20450;-58
2022/10/04 04:26:16;;;;;;;16.30;15.20;;;12.00;37.70;;;;;;5031316;28;20415;-58
2022/10/04 04:28:53;;;;;;;15.30;14.40;;;12.00;37.60;;;;;;5014195;28;20463;-58
2022/10/04 04:31:28;;;;;;;16.23;15.33;;;12.00;37.70;;;;;;5030388;28;20443;-58
2022/10/04 04:33:59;;;;;;;15.43;14.40;;;12.00;37.70;;;;;;5031404;28;20418;-53
2022/10/04 04:36:27;;;;;;;15.40;14.43;;;12.00;37.40;;;;;;5014491;28;20439;-54
2022/10/04 04:41:48;;;;;;;14.50;13.70;;;12.00;37.00;;;;;;5031724;28;20407;-53
2022/10/04 04:44:17;;;;;;;14.13;13.23;;;12.00;36.80;;;;;;5012271;28;20416;-54
2022/10/04 04:46:45;;;;;;;14.73;13.83;;;12.00;36.70;;;;;;5029337;28;20176;-51
2022/10/04 04:49:14;;;;;;;14.20;13.03;;;12.00;37.00;;;;;;5028679;28;20466;-55
2022/10/04 04:51:48;;;;;;;15.30;14.50;;;12.00;37.10;;;;;;5026644;28;20932;-53
2022/10/04 04:54:15;;;;;;;15.10;14.40;;;12.00;37.00;;;;;;5027593;28;20422;-54
2022/10/04 04:56:42;;;;;;;13.80;13.10;;;12.00;37.00;;;;;;5026338;28;20461;-52
2022/10/04 04:59:10;;;;;;;14.57;13.77;;;12.00;37.30;;;;;;5029049;28;20419;-53
2022/10/04 05:01:45;;;;;;;14.37;13.47;;;11.90;37.10;;;;;;5028710;28;20416;-57
2022/10/04 05:04:11;;;;;;;16.23;15.20;;;11.90;37.10;;;;;;5010231;28;20438;-57
2022/10/04 05:06:38;;;;;;;14.10;13.40;;;11.90;37.10;;;;;;5011411;28;20455;-57
2022/10/04 05:09:04;;;;;;;17.17;16.20;;;11.90;37.10;;;;;;5009769;28;20320;-57
2022/10/04 05:11:35;;;;;;;14.50;13.80;;;11.90;37.00;;;;;;5025870;28;20407;-57
2022/10/04 05:14:13;;;;;;;15.53;14.43;;;11.90;37.40;;;;;;5024399;28;20709;-57
2022/10/04 05:16:43;;;;;;;16.00;15.20;;;11.90;37.20;;;;;;5025077;28;20431;-57
2022/10/04 05:19:21;;;;;;;16.17;15.23;;;11.90;37.60;;;;;;5026144;28;20431;-55
2022/10/04 05:21:48;;;;;;;16.73;15.90;;;11.90;37.10;;;;;;5024832;28;20408;-56
2022/10/04 05:24:23;;;;;;;18.63;17.63;;;12.00;37.30;;;;;;5024100;28;20423;-58
2022/10/04 05:27:01;;;;;;;16.97;15.87;;;12.00;37.30;;;;;;5006483;28;20429;-60
2022/10/04 05:29:34;;;;;;;17.10;16.10;;;12.00;37.20;;;;;;5021556;28;20573;-63
2022/10/04 05:32:19;;;;;;;17.00;15.90;;;12.00;37.30;;;;;;5021463;28;20518;-65
2022/10/04 05:34:48;;;;;;;16.10;15.03;;;12.00;37.20;;;;;;5005231;28;20927;-59
2022/10/04 05:37:44;;;;;;;14.67;13.87;;;12.00;36.90;;;;;;5023949;28;20420;-59
2022/10/04 05:40:32;;;;;;;17.30;16.20;;;12.00;37.20;;;;;;5021811;28;20472;-59
2022/10/04 05:42:58;;;;;;;17.47;16.27;;;11.90;36.50;;;;;;5007567;28;20407;-59
2022/10/04 05:45:29;;;;;;;18.73;17.63;;;11.50;38.20;;;;;;5021435;28;20848;-57
2022/10/04 05:47:57;;;;;;;19.10;17.60;;;11.40;39.50;;;;;;5020828;28;20517;-57
2022/10/04 05:50:39;;;;;;;18.53;17.40;;;11.30;39.80;;;;;;5021768;28;20798;-57
2022/10/04 05:53:13;;;;;;;18.10;16.83;;;11.20;39.80;;;;;;5022072;28;20411;-57
2022/10/04 05:55:53;;;;;;;19.40;17.67;;;11.20;40.10;;;;;;5001655;28;20424;-56
2022/10/04 05:58:36;;;;;;;18.43;17.27;;;11.20;39.70;;;;;;5004729;28;20426;-57
2022/10/04 06:01:20;;;;;;;18.03;17.10;;;11.20;39.50;;;;;;5007068;28;20415;-57
2022/10/04 06:04:23;;;;;;;17.30;16.30;;;11.20;40.10;;;;;;5006655;28;20926;-57
2022/10/04 06:07:01;;;;;;;16.37;15.47;;;11.40;40.20;;;;;;5023625;28;20859;-57
2022/10/04 06:09:42;;;;;;;16.90;16.00;;;11.60;39.60;;;;;;5044993;28;20470;-57
2022/10/04 06:12:28;;;;;;;17.37;16.27;;;11.70;38.50;;;;;;5026157;28;20415;-57
2022/10/04 06:15:16;;;;;;;16.07;15.20;;;11.80;38.40;;;;;;5013892;28;20505;-57
2022/10/04 06:17:47;;;;;;;17.33;16.53;;;11.50;37.90;;;;;;5008703;28;20508;-57
2022/10/04 06:20:39;;;;;;;17.13;16.30;;;11.50;39.00;;;;;;5008760;28;20419;-57
2022/10/04 06:23:22;;;;;;;17.23;16.20;;;11.40;39.50;;;;;;4966234;28;20419;-57
2022/10/04 06:25:57;;;;;;;18.87;17.77;;;11.30;39.50;;;;;;5029208;28;20441;-60
2022/10/04 06:28:29;;;;;;;18.33;17.20;;;11.20;40.40;;;;;;5030977;28;20562;-60
2022/10/04 06:31:06;;;;;;;17.13;16.23;;;11.10;40.60;;;;;;5030257;28;20470;-60
2022/10/04 06:33:46;;;;;;;17.47;16.57;;;11.00;41.40;;;;;;5016453;28;20411;-60
2022/10/04 06:36:53;;;;;;;19.53;18.43;;;11.00;40.40;;;;;;5015876;28;20503;-60
2022/10/04 06:39:54;;;;;;;19.60;18.17;;;11.10;40.70;;;;;;4989355;28;20414;-60
2022/10/04 06:42:35;;;;;;;19.93;18.70;;;11.10;40.70;;;;;;5031406;28;20423;-60
2022/10/04 06:45:36;;;;;;;20.03;18.63;;;11.30;40.80;;;;;;5016139;28;20725;-60
2022/10/04 06:48:29;;;;;;;19.03;17.60;;;11.50;40.50;;;;;;5030952;28;20450;-60
2022/10/04 06:51:02;;;;;;;20.37;18.90;;;11.70;39.70;;;;;;5014055;28;20423;-60
2022/10/04 06:53:54;;;;;;;18.50;17.40;;;11.70;39.10;;;;;;5016742;28;20447;-60
2022/10/04 06:56:36;;;;;;;16.40;15.40;;;11.70;38.60;;;;;;5033048;28;20407;-60
2022/10/04 06:59:09;;;;;;;15.53;14.83;;;11.70;40.00;;;;;;5016451;28;20411;-60
2022/10/04 07:01:44;;;;;;;30.50;27.50;;;11.90;39.90;;;;;;5015120;28;20424;-60
2022/10/04 07:04:30;;;;;;;16.37;15.37;;;11.90;38.80;;;;;;5032388;28;20786;-59
2022/10/04 07:07:34;;;;;;;15.07;14.27;;;12.00;39.10;;;;;;5031828;28;20423;-59
2022/10/04 07:10:05;;;;;;;17.43;16.40;;;12.10;38.90;;;;;;5032217;28;20423;-60
2022/10/04 07:12:34;;;;;;;16.77;15.57;;;11.90;39.90;;;;;;5032730;28;20415;-59
2022/10/04 07:15:03;;;;;;;15.80;14.90;;;11.80;40.20;;;;;;5032203;28;20465;-58
2022/10/04 07:17:36;;;;;;;16.50;15.20;;;11.80;40.30;;;;;;5031385;28;20435;-56
2022/10/04 07:20:04;;;;;;;15.87;14.97;;;11.80;40.20;;;;;;5030440;28;20435;-54
2022/10/04 07:22:34;;;;;;;16.40;15.20;;;11.80;39.80;;;;;;5031306;28;20431;-53
2022/10/04 07:25:30;;;;;;;14.23;13.20;;;11.70;40.20;;;;;;5030983;28;20411;-55
2022/10/04 07:31:08;;;;;;;17.20;15.70;;;11.80;39.90;;;;;;5032628;28;20398;-55
2022/10/04 07:33:57;;;;;;;18.33;17.03;;;11.80;40.30;;;;;;5013004;28;20411;-54
2022/10/04 07:36:51;;;;;;;17.67;16.57;;;11.70;40.80;;;;;;5026362;28;20437;-52
2022/10/04 07:39:40;;;;;;;17.83;16.53;;;11.70;40.80;;;;;;5026899;28;20419;-53
2022/10/04 07:42:24;;;;;;;17.73;16.43;;;11.60;40.80;;;;;;5008841;28;20514;-51
2022/10/04 07:45:16;;;;;;;19.13;17.67;;;11.60;41.20;;;;;;5027385;28;20434;-54
2022/10/04 07:47:42;;;;;;;17.70;16.50;;;11.60;41.20;;;;;;4996856;28;20505;-55
2022/10/04 07:50:27;;;;;;;17.93;16.73;;;11.60;41.40;;;;;;5028541;28;20411;-53
2022/10/04 07:53:26;;;;;;;17.30;16.30;;;11.70;40.90;;;;;;5010563;28;20427;-57
2022/10/04 07:55:56;;;;;;;18.57;17.33;;;11.70;40.70;;;;;;4987544;28;20420;-57
2022/10/04 07:58:42;;;;;;;17.27;16.17;;;11.70;40.50;;;;;;5010887;28;20458;-57
2022/10/04 08:01:46;;;;;;;17.27;16.23;;;11.70;40.80;;;;;;5024577;28;20423;-57
2022/10/04 08:04:49;;;;;;;18.13;17.13;;;11.80;40.60;;;;;;4945703;28;20407;-62
2022/10/04 08:07:45;;;;;;;17.50;16.23;;;11.70;40.10;;;;;;5010685;28;20443;-57
2022/10/04 08:10:24;;;;;;;18.30;17.10;;;11.80;40.40;;;;;;5010894;28;21000;-57
2022/10/04 08:12:53;;;;;;;17.07;16.17;;;11.80;40.00;;;;;;5008994;28;20434;-57
2022/10/04 08:15:43;;;;;;;16.27;15.17;;;11.90;39.90;;;;;;5009390;28;20432;-56
2022/10/04 08:18:18;;;;;;;17.80;16.37;;;11.90;39.90;;;;;;5025956;28;20950;-57
2022/10/04 08:20:47;;;;;;;17.70;16.37;;;11.90;39.00;;;;;;5008485;28;20493;-57
2022/10/04 08:23:40;;;;;;;16.73;15.70;;;11.80;39.90;;;;;;5027135;28;20783;-57
2022/10/04 08:26:33;;;;;;;16.43;15.13;;;11.70;40.10;;;;;;5026389;28;20845;-57
2022/10/04 08:32:25;;;;;;;17.10;16.10;;;11.80;40.30;;;;;;5028380;28;20453;-57
2022/10/04 08:35:02;;;;;;;16.27;15.37;;;12.00;39.70;;;;;;4991873;28;20544;-57
2022/10/04 08:37:58;;;;;;;17.57;16.37;;;12.10;39.30;;;;;;5026628;28;20434;-57
2022/10/04 08:40:43;;;;;;;17.43;16.23;;;12.10;39.40;;;;;;5028203;28;20824;-57
2022/10/04 08:43:48;;;;;;;16.73;15.83;;;12.10;39.10;;;;;;5010208;28;20937;-58
2022/10/04 08:46:35;;;;;;;18.27;17.07;;;12.10;39.70;;;;;;5011689;28;20770;-57
2022/10/04 08:49:28;;;;;;;16.97;15.87;;;12.10;39.90;;;;;;5011820;28;20470;-56
2022/10/04 08:52:22;;;;;;;16.43;15.53;;;12.20;40.20;;;;;;5010743;28;20427;-57
2022/10/04 08:55:06;;;;;;;17.10;15.80;;;12.20;39.60;;;;;;5012303;28;20427;-57
2022/10/04 08:58:05;;;;;;;17.90;16.80;;;12.30;39.70;;;;;;5013146;28;20411;-57
2022/10/04 09:00:49;;;;;;;18.00;17.10;;;12.40;40.00;;;;;;5012489;28;20466;-56
2022/10/04 09:03:25;;;;;;;15.97;15.13;;;12.40;39.80;;;;;;5012701;28;20458;-55
2022/10/04 09:06:17;;;;;;;17.23;16.00;;;12.60;40.10;;;;;;5011428;28;20426;-55
2022/10/04 09:09:14;;;;;;;16.53;15.30;;;12.70;39.40;;;;;;5029524;28;20510;-56
2022/10/04 09:12:04;;;;;;;15.87;14.77;;;12.80;39.40;;;;;;5012953;28;20424;-54
2022/10/04 09:14:45;;;;;;;14.30;13.17;;;12.90;38.70;;;;;;5014082;28;20424;-55
2022/10/04 09:17:28;;;;;;;14.70;13.70;;;12.90;38.20;;;;;;5013985;28;20446;-54
2022/10/04 09:20:20;;;;;;;14.40;13.27;;;13.10;37.80;;;;;;5013405;28;20438;-56
2022/10/04 09:22:56;;;;;;;13.40;12.60;;;13.30;37.80;;;;;;5014123;28;20427;-56
2022/10/04 09:25:39;;;;;;;14.10;13.10;;;13.50;37.60;;;;;;5012911;28;20426;-54
2022/10/04 09:28:42;;;;;;;13.67;12.53;;;13.50;36.60;;;;;;5012848;28;20466;-56
2022/10/04 09:31:29;;;;;;;13.07;11.77;;;13.60;36.20;;;;;;5002206;28;20794;-55
2022/10/04 09:34:25;;;;;;;13.80;12.73;;;13.70;36.00;;;;;;5010084;28;20412;-55
2022/10/04 09:37:10;;;;;;;14.60;13.20;;;13.80;35.40;;;;;;5011354;28;20412;-54
2022/10/04 09:39:59;;;;;;;14.60;13.60;;;13.90;34.90;;;;;;5010023;28;20832;-55
2022/10/04 09:42:30;;;;;;;14.20;12.80;;;14.10;36.10;;;;;;5011172;28;20446;-53
2022/10/04 09:45:26;;;;;;;13.17;12.40;;;14.20;35.20;;;;;;5010951;28;20416;-56
2022/10/04 09:48:24;;;;;;;12.43;11.30;;;14.30;35.40;;;;;;5011103;28;20810;-55
2022/10/04 09:51:28;;;;;;;11.47;10.97;;;14.40;34.00;;;;;;5010611;28;20511;-55
2022/10/04 09:54:09;;;;;;;12.40;11.63;;;14.40;32.90;;;;;;4986996;28;20441;-57
2022/10/04 09:56:44;;;;;;;12.80;11.57;;;14.40;32.90;;;;;;5010204;28;20458;-55
2022/10/04 09:59:10;;;;;;;11.60;10.80;;;14.40;33.00;;;;;;5009844;28;20435;-56
2022/10/04 10:01:57;;;;;;;11.63;10.77;;;14.50;32.50;;;;;;5010432;28;20888;-55
2022/10/04 10:05:01;;;;;;;12.10;11.60;;;14.60;32.40;;;;;;5009528;28;20432;-54
2022/10/04 10:07:35;;;;;;;10.83;10.33;;;14.80;31.70;;;;;;5009787;28;20434;-55
2022/10/04 10:14:00;;;;;;;10.43;9.80;;;14.90;31.20;;;;;;4998099;28;20439;-56
2022/10/04 10:16:58;;;;;;;10.77;10.27;;;14.90;30.90;;;;;;5009898;28;20435;-55
2022/10/04 10:19:46;;;;;;;10.63;10.13;;;15.00;31.30;;;;;;5010813;28;20785;-56
2022/10/04 10:22:33;;;;;;;12.00;11.40;;;15.10;30.80;;;;;;5009528;28;20785;-56
2022/10/04 10:25:26;;;;;;;10.07;9.40;;;15.20;30.90;;;;;;5010787;28;20900;-55
2022/10/04 10:28:17;;;;;;;11.40;10.70;;;15.30;30.40;;;;;;5010748;28;20460;-56
2022/10/04 10:30:57;;;;;;;11.53;11.03;;;15.40;30.00;;;;;;5010291;28;20416;-56
2022/10/04 10:34:05;;;;;;;10.80;10.30;;;15.50;29.80;;;;;;5010721;28;20423;-55
2022/10/04 10:37:09;;;;;;;11.73;11.10;;;15.60;29.70;;;;;;4991012;28;20459;-56
2022/10/04 10:39:41;;;;;;;14.80;10.93;;;15.70;29.70;;;;;;4999240;28;20424;-56
2022/10/04 10:42:38;;;;;;;11.37;10.73;;;15.90;29.70;;;;;;5010642;28;20435;-62
2022/10/04 10:45:44;;;;;;;11.30;10.50;;;15.90;29.40;;;;;;5029183;28;20764;-62
2022/10/04 10:48:25;;;;;;;9.80;9.40;;;16.00;29.10;;;;;;4990676;28;20494;-62
2022/10/04 10:51:12;;;;;;;11.50;10.80;;;16.00;29.00;;;;;;5012977;28;20423;-62
2022/10/04 10:54:05;;;;;;;11.33;10.70;;;16.10;29.20;;;;;;5029957;28;20415;-62
2022/10/04 10:56:44;;;;;;;10.87;10.37;;;16.10;29.10;;;;;;5013180;28;20415;-62
2022/10/04 10:59:10;;;;;;;10.03;9.63;;;16.10;29.40;;;;;;5013330;28;20411;-62
2022/10/04 11:02:08;;;;;;;10.90;10.10;;;16.10;29.40;;;;;;5012318;28;20428;-62
2022/10/04 11:04:34;;;;;;;11.23;10.47;;;16.20;30.20;;;;;;5013744;28;20408;-64
2022/10/04 11:07:21;;;;;;;10.40;9.90;;;16.20;30.00;;;;;;5013457;28;20923;-58
2022/10/04 11:10:13;;;;;;;11.60;11.10;;;16.30;29.90;;;;;;5013434;28;20279;-58
2022/10/04 11:12:53;;;;;;;12.30;11.30;;;16.30;29.90;;;;;;5016861;28;20415;-58
2022/10/04 11:15:50;;;;;;;11.43;10.47;;;16.30;30.00;;;;;;5016989;28;20414;-57
2022/10/04 11:18:25;;;;;;;11.50;10.80;;;16.30;30.50;;;;;;5016917;28;20838;-57
2022/10/04 11:21:02;;;;;;;11.43;10.73;;;16.40;31.40;;;;;;5016314;28;20419;-56
2022/10/04 11:23:50;;;;;;;10.87;10.17;;;16.40;30.20;;;;;;5017131;28;20518;-56
2022/10/04 11:26:19;;;;;;;11.57;11.07;;;16.40;30.20;;;;;;5016858;28;20639;-61
2022/10/04 11:29:12;;;;;;;11.97;11.30;;;16.40;30.30;;;;;;5016707;28;20462;-61
2022/10/04 11:31:56;;;;;;;11.00;10.50;;;16.50;30.30;;;;;;5016250;28;20458;-61
2022/10/04 11:34:59;;;;;;;10.67;10.17;;;16.60;29.70;;;;;;5016821;28;20411;-61
2022/10/04 11:37:34;;;;;;;11.20;10.50;;;16.60;31.40;;;;;;5016664;28;20419;-61
2022/10/04 11:40:35;;;;;;;10.80;10.40;;;16.50;30.00;;;;;;5016128;28;20433;-56
2022/10/04 11:43:31;;;;;;;11.33;10.63;;;16.60;30.40;;;;;;4918940;29;20419;-57
2022/10/04 11:46:18;;;;;;;13.03;11.73;;;16.60;30.70;;;;;;5016587;28;20447;-57
2022/10/04 11:49:21;;;;;;;12.00;11.40;;;16.70;31.20;;;;;;5016452;28;20829;-56
2022/10/04 11:52:24;;;;;;;11.60;11.10;;;16.70;30.00;;;;;;5015907;28;20411;-57
2022/10/04 11:55:19;;;;;;;11.93;11.40;;;16.80;29.80;;;;;;5016402;28;20462;-56
2022/10/04 11:58:06;;;;;;;11.60;10.90;;;16.80;29.90;;;;;;5016447;28;20419;-55
2022/10/04 12:01:09;;;;;;;12.07;11.37;;;16.80;29.60;;;;;;5014933;28;20755;-55
2022/10/04 12:03:41;;;;;;;11.57;10.97;;;16.80;29.40;;;;;;5016167;28;20774;-55
2022/10/04 12:06:18;;;;;;;12.43;11.83;;;16.80;29.40;;;;;;5016139;28;20427;-55
2022/10/04 12:09:03;;;;;;;12.17;11.67;;;17.00;29.20;;;;;;5016022;28;20633;-55
2022/10/04 12:15:21;;;;;;;12.13;11.60;;;17.10;29.00;;;;;;5034080;28;20486;-61
2022/10/04 12:18:23;;;;;;;11.73;11.03;;;17.20;29.40;;;;;;5015973;28;20438;-61
2022/10/04 12:21:07;;;;;;;12.40;11.80;;;17.30;29.00;;;;;;5015506;28;20438;-61
2022/10/04 12:23:38;;;;;;;13.37;12.67;;;17.30;28.70;;;;;;5014936;28;20494;-62
2022/10/04 12:26:33;;;;;;;12.73;12.10;;;17.30;29.30;;;;;;5015849;28;20438;-61
2022/10/04 12:29:18;;;;;;;12.97;12.40;;;17.30;28.80;;;;;;4929968;28;20468;-61
2022/10/04 12:31:52;;;;;;;13.67;12.87;;;17.40;29.30;;;;;;5015187;28;20922;-61
2022/10/04 12:34:45;;;;;;;12.73;11.93;;;17.40;29.10;;;;;;5015288;28;20490;-62
2022/10/04 12:37:40;;;;;;;12.90;12.37;;;17.40;29.60;;;;;;5014889;28;20418;-61
2022/10/04 12:40:08;;;;;;;13.43;12.77;;;17.40;29.70;;;;;;5015074;28;20502;-61
2022/10/04 12:42:56;;;;;;;12.73;12.10;;;17.40;30.00;;;;;;5015563;28;20518;-61
2022/10/04 12:45:30;;;;;;;12.23;11.40;;;17.40;29.80;;;;;;5015349;28;20945;-61
2022/10/04 12:48:14;;;;;;;13.07;12.40;;;17.50;28.70;;;;;;5014541;28;20553;-61
2022/10/04 12:51:21;;;;;;;12.77;11.70;;;17.60;29.00;;;;;;5014723;28;20411;-61
2022/10/04 12:53:57;;;;;;;11.57;11.07;;;17.60;28.90;;;;;;5015421;28;20762;-60
2022/10/04 12:56:45;;;;;;;12.30;11.70;;;17.60;28.90;;;;;;5015369;28;20406;-61
2022/10/04 12:59:26;;;;;;;13.40;12.57;;;17.60;29.00;;;;;;5013742;28;20407;-61
2022/10/04 13:02:11;;;;;;;12.80;12.10;;;17.60;29.20;;;;;;5013818;28;20412;-61
2022/10/04 13:05:03;;;;;;;12.60;11.90;;;17.50;29.30;;;;;;5015114;28;20836;-61
2022/10/04 13:08:07;;;;;;;12.07;11.57;;;17.60;28.30;;;;;;5015016;28;20450;-61
2022/10/04 13:11:02;;;;;;;12.23;11.70;;;17.60;28.60;;;;;;4999723;28;20455;-61
2022/10/04 13:13:53;;;;;;;12.13;11.53;;;17.60;28.60;;;;;;4977883;28;20412;-61
2022/10/04 13:16:27;;;;;;;12.20;11.40;;;17.60;28.30;;;;;;5014561;28;20510;-61
2022/10/04 13:19:21;;;;;;;12.50;11.80;;;17.60;28.70;;;;;;5013934;28;20415;-61
2022/10/04 13:22:11;;;;;;;12.10;11.60;;;17.70;28.40;;;;;;5013399;28;20770;-61
2022/10/04 13:24:55;;;;;;;12.63;11.90;;;17.80;28.50;;;;;;5014025;28;20410;-61
2022/10/04 13:27:37;;;;;;;12.60;11.90;;;17.90;27.80;;;;;;5014726;28;20419;-62
2022/10/04 13:30:35;;;;;;;13.23;11.70;;;17.90;27.90;;;;;;5014039;28;20423;-61
2022/10/04 13:33:13;;;;;;;11.27;10.67;;;17.90;28.10;;;;;;5014449;28;20403;-61
2022/10/04 13:35:50;;;;;;;11.80;11.20;;;17.90;27.80;;;;;;5013846;28;20775;-61
2022/10/04 13:39:08;;;;;;;11.93;11.33;;;17.90;28.50;;;;;;5013515;28;20477;-61
2022/10/04 13:41:52;;;;;;;12.47;11.47;;;17.90;28.20;;;;;;4993188;28;20419;-57
2022/10/04 13:44:55;;;;;;;11.50;11.00;;;17.90;27.90;;;;;;5031202;28;20411;-56
2022/10/04 13:47:31;;;;;;;11.33;10.73;;;17.80;27.90;;;;;;5013076;28;20502;-56
2022/10/04 13:50:24;;;;;;;10.63;10.23;;;17.80;27.90;;;;;;5013335;28;20431;-57
2022/10/04 13:56:57;;;;;;;10.67;9.97;;;17.80;27.20;;;;;;4989245;28;20441;-56